Time;durP1;ratioP1;P1;durP2;ratioP2;P2;SDS_P1;SDS_P2;PMS_P1;PMS_P2;Temp;Humidity;BMP_temperature;BMP_pressure;BME280_temperature;BME280_humidity;BME280_pressure;Samples;Min_cycle;Max_cycle;Signal;HPM_P1;HPM_P2
2023/07/26 00:00:37;;;;;;;4.53;2.42;;;;;;;-143.49;100.00;65027.28;5094100;28;20345;-74
2023/07/26 00:03:02;;;;;;;3.00;2.13;;;;;;;-143.49;100.00;65027.28;5076015;28;20391;-74
2023/07/26 00:05:29;;;;;;;5.70;2.17;;;;;;;-143.49;100.00;65027.28;5093884;28;20028;-74
2023/07/26 00:07:55;;;;;;;4.28;2.40;;;;;;;-143.49;100.00;65027.28;5093863;28;20528;-74
2023/07/26 00:10:20;;;;;;;4.63;2.47;;;;;;;-143.49;100.00;65027.28;5093900;28;20052;-73
2023/07/26 00:12:45;;;;;;;4.20;2.38;;;;;;;-143.49;100.00;65027.28;5093649;28;20073;-74
2023/07/26 00:15:11;;;;;;;4.78;2.63;;;;;;;-143.49;100.00;65027.28;5093893;28;20073;-74
2023/07/26 00:17:36;;;;;;;5.30;2.47;;;;;;;-143.49;100.00;65027.28;5093958;28;20031;-74
2023/07/26 00:20:03;;;;;;;4.05;2.60;;;;;;;-143.49;100.00;65027.28;5093633;28;20016;-74
2023/07/26 00:22:28;;;;;;;5.32;2.60;;;;;;;-143.49;100.00;65027.28;5075506;28;20032;-74
2023/07/26 00:24:54;;;;;;;6.30;2.75;;;;;;;-143.49;100.00;65027.28;5075443;28;20186;-75
2023/07/26 00:27:19;;;;;;;7.65;2.80;;;;;;;-143.49;100.00;65027.28;5075569;28;20024;-74
2023/07/26 00:29:44;;;;;;;4.75;2.50;;;;;;;-143.49;100.00;65027.28;5093876;28;20052;-75
2023/07/26 00:32:10;;;;;;;7.40;2.78;;;;;;;-143.49;100.00;65027.28;5093665;28;20028;-74
2023/07/26 00:34:35;;;;;;;5.50;2.53;;;;;;;-143.49;100.00;65027.28;5093700;28;20020;-74
2023/07/26 00:37:03;;;;;;;5.75;2.67;;;;;;;-143.49;100.00;65027.28;5093719;28;20023;-74
2023/07/26 00:39:29;;;;;;;5.28;2.40;;;;;;;-143.49;100.00;65027.28;5075364;28;20073;-73
2023/07/26 00:41:55;;;;;;;6.55;2.70;;;;;;;-143.49;100.00;65027.28;5093418;28;20029;-73
2023/07/26 00:44:20;;;;;;;8.52;2.70;;;;;;;-143.49;100.00;65027.28;5093433;28;20031;-74
2023/07/26 00:46:45;;;;;;;5.10;2.70;;;;;;;-143.49;100.00;65027.28;5093821;28;20035;-73
2023/07/26 00:49:11;;;;;;;5.57;2.72;;;;;;;-143.49;100.00;65027.28;5093619;28;20078;-73
2023/07/26 00:51:38;;;;;;;6.47;2.60;;;;;;;-143.49;100.00;65027.28;5093421;28;20028;-74
2023/07/26 00:54:05;;;;;;;8.57;2.55;;;;;;;-143.49;100.00;65027.28;5093573;28;20126;-75
2023/07/26 00:56:31;;;;;;;5.45;2.65;;;;;;;-143.49;100.00;65027.28;5093455;28;20481;-74
2023/07/26 00:58:57;;;;;;;6.75;2.60;;;;;;;-143.49;100.00;65027.28;5075270;28;20064;-75
2023/07/26 01:01:23;;;;;;;5.63;2.63;;;;;;;-143.49;100.00;65027.28;5093541;28;20382;-74
2023/07/26 01:03:48;;;;;;;4.95;2.30;;;;;;;-143.49;100.00;65027.28;5075153;28;20031;-74
2023/07/26 01:06:22;;;;;;;8.00;2.63;;;;;;;-143.49;100.00;65027.28;5093281;28;20073;-74
2023/07/26 01:09:01;;;;;;;5.63;2.83;;;;;;;-143.49;100.00;65027.28;5093174;28;20028;-72
2023/07/26 01:11:51;;;;;;;3.92;2.60;;;;;;;-143.49;100.00;65027.28;5074944;28;20024;-73
2023/07/26 01:14:29;;;;;;;6.07;3.00;;;;;;;-143.49;100.00;65027.28;5093334;28;20020;-72
2023/07/26 01:16:54;;;;;;;4.95;2.90;;;;;;;-143.49;100.00;65027.28;5093392;28;20491;-73
2023/07/26 01:19:20;;;;;;;7.88;2.70;;;;;;;-143.49;100.00;65027.28;5075173;28;20028;-75
2023/07/26 01:21:45;;;;;;;6.80;2.80;;;;;;;-143.49;100.00;65027.28;5094105;28;20027;-74
2023/07/26 01:24:10;;;;;;;5.32;2.97;;;;;;;-143.49;100.00;65027.28;5076895;28;20028;-74
2023/07/26 01:26:36;;;;;;;5.03;2.72;;;;;;;-143.49;100.00;65027.28;5097789;28;20069;-74
2023/07/26 01:29:01;;;;;;;5.63;2.83;;;;;;;-143.49;100.00;65027.28;5097314;28;20475;-74
2023/07/26 01:31:26;;;;;;;7.22;2.75;;;;;;;-143.49;100.00;65027.28;5097383;28;20115;-74
2023/07/26 01:33:52;;;;;;;4.72;2.85;;;;;;;-143.49;100.00;65027.28;5097402;28;20430;-74
2023/07/26 01:36:24;;;;;;;4.65;2.97;;;;;;;-143.49;100.00;65027.28;5097104;28;20024;-74
2023/07/26 01:38:53;;;;;;;5.63;3.22;;;;;;;-143.49;100.00;65027.28;5097435;28;20027;-75
2023/07/26 01:41:18;;;;;;;9.05;3.00;;;;;;;-143.49;100.00;65027.28;5078599;28;20122;-75
2023/07/26 01:43:44;;;;;;;4.90;2.90;;;;;;;-143.49;100.00;65027.28;5096660;28;20111;-75
2023/07/26 01:46:11;;;;;;;6.63;3.20;;;;;;;-143.49;100.00;65027.28;5096568;28;20543;-74
2023/07/26 01:48:38;;;;;;;5.45;2.63;;;;;;;-143.49;100.00;65027.28;5096429;28;20016;-74
2023/07/26 01:51:04;;;;;;;4.82;2.80;;;;;;;-143.49;100.00;65027.28;5096754;28;20020;-74
2023/07/26 01:53:29;;;;;;;5.70;3.05;;;;;;;-143.49;100.00;65027.28;5096597;28;20103;-74
2023/07/26 01:55:54;;;;;;;5.53;2.90;;;;;;;-143.49;100.00;65027.28;5096400;28;20031;-74
2023/07/26 01:58:19;;;;;;;4.32;3.10;;;;;;;-143.49;100.00;65027.28;5096385;28;20447;-74
2023/07/26 02:00:45;;;;;;;7.53;3.47;;;;;;;-143.49;100.00;65027.28;5096577;28;20101;-74
2023/07/26 02:03:10;;;;;;;5.72;3.40;;;;;;;-143.49;100.00;65027.28;5096249;28;20112;-74
2023/07/26 02:05:42;;;;;;;4.47;3.00;;;;;;;-143.49;100.00;65027.28;5096181;28;20357;-74
2023/07/26 02:08:07;;;;;;;5.53;2.97;;;;;;;-143.49;100.00;65027.28;5096272;28;20028;-74
2023/07/26 02:10:33;;;;;;;5.88;3.30;;;;;;;-143.49;100.00;65027.28;5096027;28;20515;-74
2023/07/26 02:12:58;;;;;;;4.50;3.05;;;;;;;-143.49;100.00;65027.28;5095956;28;20050;-74
2023/07/26 02:15:23;;;;;;;6.78;3.38;;;;;;;-143.49;100.00;65027.28;5096042;28;20047;-74
2023/07/26 02:17:48;;;;;;;6.32;3.40;;;;;;;-143.49;100.00;65027.28;5095937;28;20363;-74
2023/07/26 02:20:14;;;;;;;7.10;3.50;;;;;;;-143.49;100.00;65027.28;5096081;28;20419;-74
2023/07/26 02:22:39;;;;;;;5.53;3.03;;;;;;;-143.49;100.00;65027.28;5096114;28;20045;-74
2023/07/26 02:25:05;;;;;;;5.53;3.17;;;;;;;-143.49;100.00;65027.28;5095798;28;20034;-74
2023/07/26 02:27:30;;;;;;;5.05;3.10;;;;;;;-143.49;100.00;65027.28;5095859;28;20460;-74
2023/07/26 02:29:56;;;;;;;5.38;3.10;;;;;;;-143.49;100.00;65027.28;5096017;28;20073;-74
2023/07/26 02:32:21;;;;;;;7.57;3.17;;;;;;;-143.49;100.00;65027.28;5095685;28;20023;-74
2023/07/26 02:34:47;;;;;;;5.80;3.40;;;;;;;-143.49;100.00;65027.28;5095898;28;20020;-74
2023/07/26 02:37:12;;;;;;;7.38;3.10;;;;;;;-143.49;100.00;65027.28;5095733;28;20055;-74
2023/07/26 02:39:37;;;;;;;9.70;3.30;;;;;;;-143.49;100.00;65027.28;5077753;28;20115;-74
2023/07/26 02:42:03;;;;;;;5.47;2.83;;;;;;;-143.49;100.00;65027.28;5095328;28;20036;-73
2023/07/26 02:44:28;;;;;;;6.82;3.10;;;;;;;-143.49;100.00;65027.28;5095495;28;20027;-73
2023/07/26 02:46:54;;;;;;;5.40;3.05;;;;;;;-143.49;100.00;65027.28;5095510;28;20028;-74
2023/07/26 02:49:19;;;;;;;6.38;3.05;;;;;;;-143.49;100.00;65027.28;5095293;28;20041;-73
2023/07/26 02:51:44;;;;;;;5.35;3.25;;;;;;;-143.49;100.00;65027.28;5095553;28;20043;-73
2023/07/26 02:54:10;;;;;;;4.28;3.03;;;;;;;-143.49;100.00;65027.28;5095322;28;20067;-73
2023/07/26 02:56:35;;;;;;;6.28;3.10;;;;;;;-143.49;100.00;65027.28;5095396;28;20032;-73
2023/07/26 02:59:00;;;;;;;6.28;3.00;;;;;;;-143.49;100.00;65027.28;5095314;28;20391;-74
2023/07/26 03:01:26;;;;;;;6.25;3.20;;;;;;;-143.49;100.00;65027.28;5095457;28;20451;-74
2023/07/26 03:03:51;;;;;;;5.35;3.17;;;;;;;-143.49;100.00;65027.28;5094696;28;20085;-73
2023/07/26 03:06:16;;;;;;;5.40;3.40;;;;;;;-143.49;100.00;65027.28;5094831;28;20056;-73
2023/07/26 03:08:42;;;;;;;6.25;3.60;;;;;;;-143.49;100.00;65027.28;5095230;28;20116;-73
2023/07/26 03:11:07;;;;;;;7.72;3.70;;;;;;;-143.49;100.00;65027.28;5094944;28;20040;-73
2023/07/26 03:13:33;;;;;;;7.35;3.67;;;;;;;-143.49;100.00;65027.28;5076971;28;20460;-73
2023/07/26 03:15:59;;;;;;;5.63;3.95;;;;;;;-143.49;100.00;65027.28;5095365;28;20052;-73
2023/07/26 03:18:24;;;;;;;7.75;3.60;;;;;;;-143.49;100.00;65027.28;5094847;28;20088;-73
2023/07/26 03:20:50;;;;;;;5.40;4.00;;;;;;;-143.49;100.00;65027.28;5076716;28;20059;-73
2023/07/26 03:23:15;;;;;;;6.53;4.20;;;;;;;-143.49;100.00;65027.28;5094874;28;20348;-73
2023/07/26 03:25:43;;;;;;;8.48;4.10;;;;;;;-143.49;100.00;65027.28;5095000;28;20468;-73
2023/07/26 03:28:09;;;;;;;7.55;4.30;;;;;;;-143.49;100.00;65027.28;5094597;28;20456;-74
2023/07/26 03:30:34;;;;;;;5.35;4.10;;;;;;;-143.49;100.00;65027.28;5094961;28;20080;-74
2023/07/26 03:32:59;;;;;;;7.28;4.32;;;;;;;-143.49;100.00;65027.28;5094549;28;20020;-74
2023/07/26 03:35:25;;;;;;;8.10;4.40;;;;;;;-143.49;100.00;65027.28;5094490;28;20479;-74
2023/07/26 03:37:50;;;;;;;7.30;4.47;;;;;;;-143.49;100.00;65027.28;5094616;28;20165;-74
2023/07/26 03:40:15;;;;;;;9.23;4.28;;;;;;;-143.49;100.00;65027.28;5094524;28;20036;-73
2023/07/26 03:42:41;;;;;;;6.78;4.00;;;;;;;-143.49;100.00;65027.28;5094617;28;20103;-75
2023/07/26 03:45:06;;;;;;;6.15;4.10;;;;;;;-143.49;100.00;65027.28;5094276;28;20026;-73
2023/07/26 03:47:32;;;;;;;6.88;4.40;;;;;;;-143.49;100.00;65027.28;5094105;28;20099;-73
2023/07/26 03:49:59;;;;;;;10.15;4.53;;;;;;;-143.49;100.00;65027.28;5094330;28;20032;-74
2023/07/26 03:52:24;;;;;;;6.78;4.35;;;;;;;-143.49;100.00;65027.28;5093941;28;20027;-74
2023/07/26 03:54:50;;;;;;;8.63;4.20;;;;;;;-143.49;100.00;65027.28;5076079;28;20019;-75
2023/07/26 03:57:16;;;;;;;8.15;4.53;;;;;;;-143.49;100.00;65027.28;5094169;28;20031;-75
2023/07/26 03:59:41;;;;;;;12.63;4.65;;;;;;;-143.49;100.00;65027.28;5094175;28;20043;-74
2023/07/26 04:02:08;;;;;;;7.40;4.47;;;;;;;-143.49;100.00;65027.28;5093945;28;20107;-74
2023/07/26 04:04:33;;;;;;;6.80;4.57;;;;;;;-143.49;100.00;65027.28;5075766;28;20372;-74
2023/07/26 04:06:58;;;;;;;6.55;4.35;;;;;;;-143.49;100.00;65027.28;5075680;28;20080;-74
2023/07/26 04:09:24;;;;;;;7.95;4.82;;;;;;;-143.49;100.00;65027.28;5093829;28;20063;-74
2023/07/26 04:11:54;;;;;;;7.18;4.70;;;;;;;-143.49;100.00;65027.28;5093885;28;20039;-74
2023/07/26 04:14:20;;;;;;;8.23;4.85;;;;;;;-143.49;100.00;65027.28;5093885;28;20024;-74
2023/07/26 04:16:45;;;;;;;6.68;4.72;;;;;;;-143.49;100.00;65027.28;5093988;28;20035;-74
2023/07/26 04:19:10;;;;;;;8.02;4.82;;;;;;;-143.49;100.00;65027.28;5093653;28;20032;-74
2023/07/26 04:21:36;;;;;;;8.07;4.85;;;;;;;-143.49;100.00;65027.28;5093607;28;20085;-74
2023/07/26 04:24:01;;;;;;;8.38;4.80;;;;;;;-143.49;100.00;65027.28;5093834;28;20046;-75
2023/07/26 04:26:26;;;;;;;8.90;4.60;;;;;;;-143.49;100.00;65027.28;5093781;28;20470;-73
2023/07/26 04:28:51;;;;;;;7.45;4.70;;;;;;;-143.49;100.00;65027.28;5075643;28;20020;-74
2023/07/26 04:31:17;;;;;;;7.05;4.30;;;;;;;-143.49;100.00;65027.28;5093595;28;20063;-73
2023/07/26 04:33:42;;;;;;;7.13;4.78;;;;;;;-143.49;100.00;65027.28;5093644;28;20055;-73
2023/07/26 04:36:07;;;;;;;10.00;4.88;;;;;;;-143.49;100.00;65027.28;5093664;28;20343;-74
2023/07/26 04:38:33;;;;;;;11.70;5.50;;;;;;;-143.49;100.00;65027.28;5093477;28;20026;-73
2023/07/26 04:40:58;;;;;;;8.60;4.70;;;;;;;-143.49;100.00;65027.28;5093582;28;20451;-74
2023/07/26 04:43:23;;;;;;;8.55;4.38;;;;;;;-143.49;100.00;65027.28;5075372;28;20020;-74
2023/07/26 04:45:50;;;;;;;9.18;4.63;;;;;;;-143.49;100.00;65027.28;5093318;28;20024;-73
2023/07/26 04:48:17;;;;;;;10.93;4.80;;;;;;;-143.49;100.00;65027.28;5093487;28;20024;-73
2023/07/26 04:50:43;;;;;;;6.28;4.32;;;;;;;-143.49;100.00;65027.28;5093664;28;20051;-73
2023/07/26 04:53:09;;;;;;;8.55;4.13;;;;;;;-143.49;100.00;65027.28;5093663;28;20107;-73
2023/07/26 04:55:55;;;;;;;6.57;4.10;;;;;;;-143.49;100.00;65027.28;5093486;28;20517;-74
2023/07/26 04:58:20;;;;;;;7.35;4.60;;;;;;;-143.49;100.00;65027.28;5075491;28;20132;-74
2023/07/26 05:00:46;;;;;;;9.80;4.40;;;;;;;-143.49;100.00;65027.28;5078620;28;20107;-74
2023/07/26 05:03:11;;;;;;;9.00;4.45;;;;;;;-143.49;100.00;65027.28;5097158;28;20024;-74
2023/07/26 05:05:37;;;;;;;6.43;4.30;;;;;;;-143.49;100.00;65027.28;5097248;28;20027;-74
2023/07/26 05:08:03;;;;;;;8.25;4.80;;;;;;;-143.49;100.00;65027.28;5097157;28;20471;-74
2023/07/26 05:10:29;;;;;;;9.15;4.78;;;;;;;-143.49;100.00;65027.28;5097153;28;20051;-74
2023/07/26 05:12:55;;;;;;;7.78;4.68;;;;;;;-143.49;100.00;65027.28;5097060;28;20048;-74
2023/07/26 05:15:21;;;;;;;5.88;4.65;;;;;;;-143.49;100.00;65027.28;5097041;28;20031;-73
2023/07/26 05:17:46;;;;;;;7.90;4.63;;;;;;;-143.49;100.00;65027.28;5078843;28;20020;-75
2023/07/26 05:20:13;;;;;;;8.88;4.80;;;;;;;-143.49;100.00;65027.28;5078797;28;20031;-74
2023/07/26 05:22:38;;;;;;;9.35;4.68;;;;;;;-143.49;100.00;65027.28;5097031;28;20024;-74
2023/07/26 05:25:04;;;;;;;7.68;4.50;;;;;;;-143.49;100.00;65027.28;5096857;28;20551;-74
2023/07/26 05:27:29;;;;;;;8.32;4.82;;;;;;;-143.49;100.00;65027.28;5097092;28;20024;-75
2023/07/26 05:29:57;;;;;;;15.25;5.20;;;;;;;-143.49;100.00;65027.28;5078588;28;20016;-74
2023/07/26 05:32:23;;;;;;;8.57;5.10;;;;;;;-143.49;100.00;65027.28;5078741;28;20016;-73
2023/07/26 05:34:48;;;;;;;9.52;4.85;;;;;;;-143.49;100.00;65027.28;5096966;28;20029;-73
2023/07/26 05:37:13;;;;;;;10.63;5.25;;;;;;;-143.49;100.00;65027.28;5096716;28;20024;-74
2023/07/26 05:39:39;;;;;;;9.43;4.90;;;;;;;-143.49;100.00;65027.28;5097119;28;20024;-72
2023/07/26 05:42:04;;;;;;;10.43;5.32;;;;;;;-143.49;100.00;65027.28;5096697;28;20059;-73
2023/07/26 05:44:30;;;;;;;8.25;5.03;;;;;;;-143.49;100.00;65027.28;5096731;28;20157;-73
2023/07/26 05:46:55;;;;;;;11.20;5.72;;;;;;;-143.49;100.00;65027.28;5078597;28;20443;-73
2023/07/26 05:49:20;;;;;;;11.05;5.68;;;;;;;-143.49;100.00;65027.28;5096580;28;20050;-73
2023/07/26 05:51:46;;;;;;;8.50;5.60;;;;;;;-143.49;100.00;65027.28;5096698;28;20410;-73
2023/07/26 05:54:11;;;;;;;9.63;6.00;;;;;;;-143.49;100.00;65027.28;5096645;28;20391;-73
2023/07/26 05:56:36;;;;;;;10.30;5.47;;;;;;;-143.49;100.00;65027.28;5096415;28;20023;-73
2023/07/26 05:59:02;;;;;;;9.40;5.72;;;;;;;-143.49;100.00;65027.28;5096380;28;20024;-73
2023/07/26 06:01:27;;;;;;;9.30;5.72;;;;;;;-143.49;100.00;65027.28;5096211;28;20024;-73
2023/07/26 06:03:53;;;;;;;9.90;5.97;;;;;;;-143.49;100.00;65027.28;5096319;28;20027;-73
2023/07/26 06:06:19;;;;;;;13.50;5.57;;;;;;;-143.49;100.00;65027.28;5096450;28;20016;-73
2023/07/26 06:08:44;;;;;;;16.67;5.82;;;;;;;-143.49;100.00;65027.28;5078708;28;20077;-73
2023/07/26 06:11:09;;;;;;;10.80;5.90;;;;;;;-143.49;100.00;65027.28;5075601;28;20404;-72
2023/07/26 06:13:35;;;;;;;13.95;6.30;;;;;;;-143.49;100.00;65027.28;5075850;28;20020;-72
2023/07/26 06:16:00;;;;;;;8.98;5.97;;;;;;;-143.49;100.00;65027.28;5075815;28;20027;-73
2023/07/26 06:18:26;;;;;;;7.88;5.53;;;;;;;-143.49;100.00;65027.28;5076370;28;20063;-73
2023/07/26 06:20:51;;;;;;;10.73;5.78;;;;;;;-143.49;100.00;65027.28;5075604;28;20024;-73
2023/07/26 06:23:16;;;;;;;10.93;5.95;;;;;;;-143.49;100.00;65027.28;5076550;28;20368;-74
2023/07/26 06:25:42;;;;;;;12.68;6.00;;;;;;;-143.49;100.00;65027.28;5075730;28;20029;-72
2023/07/26 06:28:07;;;;;;;9.65;6.07;;;;;;;-143.49;100.00;65027.28;5075629;28;20070;-72
2023/07/26 06:30:32;;;;;;;10.60;6.40;;;;;;;-143.49;100.00;65027.28;5075568;28;20024;-73
2023/07/26 06:32:57;;;;;;;10.18;5.90;;;;;;;-143.49;100.00;65027.28;5076433;28;20017;-72
2023/07/26 06:35:23;;;;;;;9.40;5.90;;;;;;;-143.49;100.00;65027.28;5076149;28;20025;-72
2023/07/26 06:37:48;;;;;;;11.98;6.25;;;;;;;-143.49;100.00;65027.28;5076211;28;20100;-74
2023/07/26 06:40:13;;;;;;;14.07;6.25;;;;;;;-143.49;100.00;65027.28;5075890;28;20079;-73
2023/07/26 06:42:39;;;;;;;12.45;6.43;;;;;;;-143.49;100.00;65027.28;5075538;28;20028;-73
2023/07/26 06:45:05;;;;;;;8.52;5.47;;;;;;;-143.49;100.00;65027.28;5074396;28;20029;-73
2023/07/26 06:47:30;;;;;;;10.40;5.88;;;;;;;-143.49;100.00;65027.28;5057345;28;20055;-73
2023/07/26 06:49:55;;;;;;;9.57;5.57;;;;;;;-143.49;100.00;65027.28;5075514;28;20479;-73
2023/07/26 06:52:21;;;;;;;10.60;5.55;;;;;;;-143.49;100.00;65027.28;5075504;28;20028;-74
2023/07/26 06:54:46;;;;;;;9.02;5.43;;;;;;;-143.49;100.00;65027.28;5057548;28;20025;-72
2023/07/26 06:57:15;;;;;;;7.55;4.30;;;;;;;-143.49;100.00;65027.28;5057311;28;20024;-73
2023/07/26 06:59:40;;;;;;;16.27;6.03;;;;;;;-143.49;100.00;65027.28;5074145;28;20016;-73
2023/07/26 07:02:06;;;;;;;8.02;4.72;;;;;;;-143.49;100.00;65027.28;5056787;28;20028;-73
2023/07/26 07:04:35;;;;;;;13.30;4.28;;;;;;;-143.49;100.00;65027.28;5074696;28;20039;-73
2023/07/26 07:07:00;;;;;;;8.18;3.55;;;;;;;-143.49;100.00;65027.28;5074753;28;20035;-73
2023/07/26 07:09:25;;;;;;;5.45;3.33;;;;;;;-143.49;100.00;65027.28;5062172;28;20387;-74
2023/07/26 07:11:50;;;;;;;5.00;3.50;;;;;;;-143.49;100.00;65027.28;5094673;28;20071;-73
2023/07/26 07:14:16;;;;;;;7.15;3.40;;;;;;;-143.49;100.00;65027.28;5076518;28;20028;-74
2023/07/26 07:16:41;;;;;;;5.32;3.20;;;;;;;-143.49;100.00;65027.28;5076405;28;20472;-73
2023/07/26 07:19:07;;;;;;;7.72;2.92;;;;;;;-143.49;100.00;65027.28;5094559;28;20032;-72
2023/07/26 07:21:32;;;;;;;5.70;3.00;;;;;;;-143.49;100.00;65027.28;5094163;28;20019;-73
2023/07/26 07:23:57;;;;;;;6.93;2.83;;;;;;;-143.49;100.00;65027.28;5094262;28;20111;-71
2023/07/26 07:26:23;;;;;;;5.82;2.85;;;;;;;-143.49;100.00;65027.28;5095051;28;20402;-72
2023/07/26 07:28:48;;;;;;;5.00;2.53;;;;;;;-143.49;100.00;65027.28;5094570;28;20028;-73
2023/07/26 07:31:14;;;;;;;4.82;2.08;;;;;;;-143.49;100.00;65027.28;5094489;28;20046;-72
2023/07/26 07:33:39;;;;;;;3.38;1.83;;;;;;;-143.49;100.00;65027.28;5094539;28;20107;-73
2023/07/26 07:36:04;;;;;;;4.95;1.80;;;;;;;-143.49;100.00;65027.28;5076095;28;20024;-72
2023/07/26 07:38:31;;;;;;;5.72;2.20;;;;;;;-143.49;100.00;65027.28;5076271;28;20036;-72
2023/07/26 07:40:56;;;;;;;3.08;1.70;;;;;;;-143.49;100.00;65027.28;5094434;28;20027;-73
2023/07/26 07:43:22;;;;;;;1.90;1.30;;;;;;;-143.49;100.00;65027.28;5076172;28;20020;-74
2023/07/26 07:45:47;;;;;;;3.05;1.50;;;;;;;-143.49;100.00;65027.28;5094186;28;20471;-73
2023/07/26 07:48:12;;;;;;;2.63;1.40;;;;;;;-143.49;100.00;65027.28;5094354;28;20077;-72
2023/07/26 07:50:37;;;;;;;4.28;1.50;;;;;;;-143.49;100.00;65027.28;5094521;28;20028;-74
2023/07/26 07:53:04;;;;;;;3.72;1.58;;;;;;;-143.49;100.00;65027.28;5075822;28;20395;-76
2023/07/26 07:55:31;;;;;;;2.50;1.70;;;;;;;-143.49;100.00;65027.28;5093989;28;20122;-75
2023/07/26 07:58:01;;;;;;;5.97;1.63;;;;;;;-143.49;100.00;65027.28;5075832;28;20102;-74
2023/07/26 08:00:26;;;;;;;3.08;1.75;;;;;;;-143.49;100.00;65027.28;5094306;28;20383;-76
2023/07/26 08:02:52;;;;;;;3.65;1.45;;;;;;;-143.49;100.00;65027.28;5075793;28;20028;-75
2023/07/26 08:05:20;;;;;;;5.35;1.90;;;;;;;-143.49;100.00;65027.28;5076449;28;20106;-74
2023/07/26 08:07:46;;;;;;;3.80;1.77;;;;;;;-143.49;100.00;65027.28;5094339;28;20024;-75
2023/07/26 08:10:12;;;;;;;3.38;2.10;;;;;;;-143.49;100.00;65027.28;5093052;28;20055;-75
2023/07/26 08:12:37;;;;;;;7.93;2.33;;;;;;;-143.49;100.00;65027.28;5094019;28;20016;-75
2023/07/26 08:15:03;;;;;;;3.65;2.00;;;;;;;-143.49;100.00;65027.28;5093511;28;20050;-75
2023/07/26 08:17:28;;;;;;;3.35;1.90;;;;;;;-143.49;100.00;65027.28;5075739;28;20020;-75
2023/07/26 08:19:54;;;;;;;4.32;2.10;;;;;;;-143.49;100.00;65027.28;5094027;28;20063;-75
2023/07/26 08:22:19;;;;;;;4.53;2.20;;;;;;;-143.49;100.00;65027.28;5075798;28;20028;-74
2023/07/26 08:24:44;;;;;;;5.03;2.30;;;;;;;-143.49;100.00;65027.28;5093564;28;20451;-74
2023/07/26 08:27:10;;;;;;;5.63;2.38;;;;;;;-143.49;100.00;65027.28;5093789;28;20452;-66
2023/07/26 08:29:35;;;;;;;4.65;2.25;;;;;;;-143.49;100.00;65027.28;5093399;28;20023;-66
2023/07/26 08:32:00;;;;;;;6.18;2.40;;;;;;;-143.49;100.00;65027.28;5093288;28;20050;-66
2023/07/26 08:34:26;;;;;;;4.30;2.60;;;;;;;-143.49;100.00;65027.28;5075093;28;20062;-65
2023/07/26 08:36:51;;;;;;;3.85;2.50;;;;;;;-143.49;100.00;65027.28;5093391;28;20106;-67
2023/07/26 08:39:16;;;;;;;4.18;2.45;;;;;;;-143.49;100.00;65027.28;5094036;28;20039;-66
2023/07/26 08:41:42;;;;;;;10.52;2.70;;;;;;;-143.49;100.00;65027.28;5093874;28;20024;-66
2023/07/26 08:44:09;;;;;;;4.68;2.80;;;;;;;-143.49;100.00;65027.28;5093729;28;20027;-67
2023/07/26 08:46:38;;;;;;;6.05;2.92;;;;;;;-143.49;100.00;65027.28;5075418;28;20110;-67
2023/07/26 08:49:05;;;;;;;4.70;2.65;;;;;;;-143.49;100.00;65027.28;5075407;28;20388;-66
2023/07/26 08:51:31;;;;;;;7.57;2.85;;;;;;;-143.49;100.00;65027.28;5093578;28;20016;-67
2023/07/26 08:53:57;;;;;;;5.05;2.70;;;;;;;-143.49;100.00;65027.28;5093396;28;20021;-66
2023/07/26 08:56:25;;;;;;;8.27;3.35;;;;;;;-143.49;100.00;65027.28;5093436;28;20024;-67
2023/07/26 08:58:51;;;;;;;6.78;2.90;;;;;;;-143.49;100.00;65027.28;5093483;28;20024;-67
2023/07/26 09:01:16;;;;;;;7.75;3.20;;;;;;;-143.49;100.00;65027.28;5093616;28;20028;-68
2023/07/26 09:03:41;;;;;;;6.85;2.97;;;;;;;-143.49;100.00;65027.28;5093503;28;20048;-68
2023/07/26 09:06:08;;;;;;;6.45;3.13;;;;;;;-143.49;100.00;65027.28;5093399;28;20035;-68
2023/07/26 09:08:34;;;;;;;4.55;2.75;;;;;;;-143.49;100.00;65027.28;5093455;28;20031;-67
2023/07/26 09:11:03;;;;;;;7.22;2.25;;;;;;;-143.49;100.00;65027.28;5093066;28;20087;-67
2023/07/26 09:13:28;;;;;;;3.63;2.33;;;;;;;-143.49;100.00;65027.28;5093548;28;20024;-66
2023/07/26 09:15:54;;;;;;;4.35;2.63;;;;;;;-143.49;100.00;65027.28;5093248;28;20031;-67
2023/07/26 09:18:19;;;;;;;4.35;2.72;;;;;;;-143.49;100.00;65027.28;5092863;28;20072;-67
2023/07/26 09:20:45;;;;;;;6.90;2.88;;;;;;;-143.49;100.00;65027.28;5092455;28;20020;-67
2023/07/26 09:23:12;;;;;;;5.57;2.72;;;;;;;-143.49;100.00;65027.28;5091705;28;20063;-66
2023/07/26 09:25:41;;;;;;;5.72;2.70;;;;;;;-143.49;100.00;65027.28;5091016;28;20028;-68
2023/07/26 09:28:08;;;;;;;4.05;2.67;;;;;;;-143.49;100.00;65027.28;5091927;28;20020;-68
2023/07/26 09:30:38;;;;;;;5.85;2.55;;;;;;;-143.49;100.00;65027.28;5091643;28;20032;-68
2023/07/26 09:33:06;;;;;;;5.50;2.55;;;;;;;-143.49;100.00;65027.28;5091887;28;20389;-66
2023/07/26 09:35:32;;;;;;;4.68;2.35;;;;;;;-143.49;100.00;65027.28;5092062;28;20480;-67
2023/07/26 09:37:58;;;;;;;4.45;2.50;;;;;;;-143.49;100.00;65027.28;5074531;28;20073;-66
2023/07/26 09:40:33;;;;;;;5.40;2.60;;;;;;;-143.49;100.00;65027.28;5092494;28;20028;-69
2023/07/26 09:42:59;;;;;;;5.85;2.58;;;;;;;-143.49;100.00;65027.28;5092386;28;20391;-66
2023/07/26 09:45:24;;;;;;;5.57;2.72;;;;;;;-143.49;100.00;65027.28;5093794;28;20024;-67
2023/07/26 09:47:53;;;;;;;8.80;2.60;;;;;;;-143.49;100.00;65027.28;5096218;28;20047;-67
2023/07/26 09:50:27;;;;;;;5.18;2.63;;;;;;;-143.49;100.00;65027.28;5096141;28;20055;-67
2023/07/26 09:52:54;;;;;;;7.47;2.60;;;;;;;-143.49;100.00;65027.28;5096112;28;20077;-67
2023/07/26 09:55:22;;;;;;;4.28;2.30;;;;;;;-143.49;100.00;65027.28;5096269;28;20024;-67
2023/07/26 09:57:48;;;;;;;8.18;2.30;;;;;;;-143.49;100.00;65027.28;5077892;28;20051;-67
2023/07/26 10:00:15;;;;;;;10.48;2.15;;;;;;;-143.49;100.00;65027.28;5096037;28;20056;-67
2023/07/26 10:02:41;;;;;;;4.00;2.08;;;;;;;-143.49;100.00;65027.28;5095862;28;20020;-68
2023/07/26 10:05:09;;;;;;;5.28;2.20;;;;;;;-143.49;100.00;65027.28;5095893;28;20483;-67
2023/07/26 10:07:36;;;;;;;5.00;2.40;;;;;;;-143.49;100.00;65027.28;5095672;28;20479;-67
2023/07/26 10:10:06;;;;;;;4.25;2.42;;;;;;;-143.49;100.00;65027.28;5095562;28;20036;-68
2023/07/26 10:12:33;;;;;;;4.55;2.42;;;;;;;-143.49;100.00;65027.28;5095539;28;20531;-67
2023/07/26 10:15:02;;;;;;;4.45;2.20;;;;;;;-143.49;100.00;65027.28;5095676;28;20020;-67
2023/07/26 10:17:28;;;;;;;4.05;2.28;;;;;;;-143.49;100.00;65027.28;5077754;28;20115;-67
2023/07/26 10:19:55;;;;;;;5.18;2.00;;;;;;;-143.49;100.00;65027.28;5095131;28;20028;-67
2023/07/26 10:22:21;;;;;;;3.58;2.20;;;;;;;-143.49;100.00;65027.28;5077081;28;20039;-65
2023/07/26 10:24:46;;;;;;;3.95;2.03;;;;;;;-143.49;100.00;65027.28;5077103;28;20548;-67
2023/07/26 10:27:12;;;;;;;5.15;2.10;;;;;;;-143.49;100.00;65027.28;5077401;28;20020;-67
2023/07/26 10:29:38;;;;;;;5.22;2.40;;;;;;;-143.49;100.00;65027.28;5095445;28;20109;-67
2023/07/26 10:32:11;;;;;;;4.82;2.15;;;;;;;-143.49;100.00;65027.28;5096592;28;20039;-67
2023/07/26 10:34:37;;;;;;;4.32;2.30;;;;;;;-143.49;100.00;65027.28;5078822;28;20397;-69
2023/07/26 10:37:19;;;;;;;6.80;2.50;;;;;;;-143.49;100.00;65027.28;5096522;28;20102;-66
2023/07/26 10:39:51;;;;;;;5.65;2.58;;;;;;;-143.49;100.00;65027.28;5079148;28;20466;-74
2023/07/26 10:42:30;;;;;;;6.10;2.10;;;;;;;-143.49;100.00;65027.28;5095340;28;20093;-73
2023/07/26 10:45:04;;;;;;;3.22;2.22;;;;;;;-143.49;100.00;65027.28;5077507;28;20032;-74
2023/07/26 10:47:30;;;;;;;5.50;2.42;;;;;;;-143.49;100.00;65027.28;5078536;28;20074;-73
2023/07/26 10:50:05;;;;;;;6.15;2.83;;;;;;;-143.49;100.00;65027.28;5078249;28;20024;-73
2023/07/26 10:52:36;;;;;;;4.70;2.42;;;;;;;-143.49;100.00;65027.28;5096038;28;20472;-74
2023/07/26 10:55:22;;;;;;;5.45;2.80;;;;;;;-143.49;100.00;65027.28;5077724;28;20024;-74
2023/07/26 10:57:48;;;;;;;7.20;2.78;;;;;;;-143.49;100.00;65027.28;5077084;28;20585;-74
2023/07/26 11:00:22;;;;;;;4.28;2.17;;;;;;;-143.49;100.00;65027.28;5077375;28;20055;-74
2023/07/26 11:02:58;;;;;;;6.85;2.50;;;;;;;-143.49;100.00;65027.28;5077489;28;20024;-74
2023/07/26 11:05:23;;;;;;;6.03;2.72;;;;;;;-143.49;100.00;65027.28;5095502;28;20028;-73